Time;durP1;ratioP1;P1;durP2;ratioP2;P2;SDS_P1;SDS_P2;PMS_P1;PMS_P2;Temp;Humidity;BMP_temperature;BMP_pressure;BME280_temperature;BME280_humidity;BME280_pressure;Samples;Min_cycle;Max_cycle;Signal;HPM_P1;HPM_P2
2022/07/31 00:00:44;;;;;;;;;2.75;1.75;;;;;26.95;41.85;101520.69;4990045;27;45516;-67
2022/07/31 00:03:09;;;;;;;;;0.00;0.00;;;;;26.82;41.82;101499.00;4966323;28;48157;-67
2022/07/31 00:05:36;;;;;;;;;1.00;1.00;;;;;26.89;41.82;101518.34;4990009;27;45377;-67
2022/07/31 00:08:09;;;;;;;;;0.75;0.75;;;;;26.89;41.79;101514.81;4978138;27;45580;-67
2022/07/31 00:10:34;;;;;;;;;3.00;1.00;;;;;26.85;41.88;101517.63;4976336;27;45902;-68
2022/07/31 00:13:01;;;;;;;;;0.25;0.25;;;;;26.84;41.97;101507.00;4983468;27;45695;-68
2022/07/31 00:15:27;;;;;;;;;1.00;0.50;;;;;26.83;42.12;101513.28;4993267;27;45361;-68
2022/07/31 00:17:57;;;;;;;;;1.00;1.00;;;;;26.80;41.99;101510.78;4995203;27;45342;-68
2022/07/31 00:20:23;;;;;;;;;1.00;1.00;;;;;26.72;42.13;101497.78;4990016;27;45736;-68
2022/07/31 00:22:49;;;;;;;;;1.25;0.50;;;;;26.75;42.27;101512.84;5022739;27;45789;-70
2022/07/31 00:25:15;;;;;;;;;0.75;0.75;;;;;26.70;42.11;101494.28;5018244;27;45463;-68
2022/07/31 00:27:41;;;;;;;;;1.00;1.00;;;;;26.65;42.49;101493.69;4977082;27;45678;-68
2022/07/31 00:30:08;;;;;;;;;1.00;1.00;;;;;26.71;42.49;101508.59;4991160;27;45611;-68
2022/07/31 00:32:37;;;;;;;;;1.00;1.00;;;;;26.64;42.17;101491.91;4976363;27;46632;-69
2022/07/31 00:35:04;;;;;;;;;2.50;2.00;;;;;26.67;42.57;101502.50;4990509;27;45411;-68
2022/07/31 00:37:36;;;;;;;;;2.00;1.00;;;;;26.60;42.84;101498.41;5059875;28;45341;-69
2022/07/31 00:40:04;;;;;;;;;1.75;1.75;;;;;26.30;43.29;101487.44;5031944;28;45426;-68
2022/07/31 00:42:30;;;;;;;;;0.75;0.00;;;;;26.22;43.26;101494.09;4988467;27;46124;-68
2022/07/31 00:44:57;;;;;;;;;1.00;1.00;;;;;26.25;43.59;101502.94;4983184;27;45524;-69
2022/07/31 00:47:23;;;;;;;;;1.00;1.00;;;;;26.14;43.72;101508.84;4973062;28;45782;-69
2022/07/31 00:49:49;;;;;;;;;1.00;1.00;;;;;25.99;43.86;101476.47;4986860;27;45375;-68
2022/07/31 00:52:14;;;;;;;;;1.00;1.00;;;;;26.18;43.66;101502.38;4986122;27;46124;-68
2022/07/31 00:54:40;;;;;;;;;1.00;1.00;;;;;26.17;43.51;101496.13;4991678;27;45375;-68
2022/07/31 00:57:06;;;;;;;;;1.25;1.00;;;;;26.15;43.22;101492.66;4991489;27;45442;-69
2022/07/31 00:59:32;;;;;;;;;1.00;1.00;;;;;26.18;43.17;101492.50;4983417;28;45879;-68
2022/07/31 01:01:58;;;;;;;;;1.00;1.00;;;;;26.28;43.11;101514.38;4991967;27;46014;-69
2022/07/31 01:04:25;;;;;;;;;2.00;0.75;;;;;26.18;43.21;101497.00;4997244;27;45549;-69
2022/07/31 01:06:54;;;;;;;;;0.00;0.00;;;;;26.10;43.31;101483.09;4989522;27;45618;-68
2022/07/31 01:09:20;;;;;;;;;1.00;1.00;;;;;26.06;43.54;101485.06;4984469;27;45858;-69
2022/07/31 01:12:08;;;;;;;;;1.00;1.00;;;;;26.20;43.45;101513.91;4969836;27;47662;-68
2022/07/31 01:14:42;;;;;;;;;1.00;1.00;;;;;26.21;43.58;101507.56;4992916;27;45752;-68
2022/07/31 01:17:09;;;;;;;;;0.25;0.25;;;;;26.16;43.63;101501.56;4991068;27;45355;-68
2022/07/31 01:19:42;;;;;;;;;0.00;0.00;;;;;26.11;43.89;101511.69;4964292;28;45463;-68
2022/07/31 01:22:41;;;;;;;;;0.00;0.00;;;;;26.09;43.85;101511.75;4992942;27;45803;-69
2022/07/31 01:25:21;;;;;;;;;0.25;0.25;;;;;26.12;43.43;101513.41;4993450;27;45961;-68
2022/07/31 01:28:15;;;;;;;;;0.00;0.00;;;;;26.10;43.86;101510.81;4993026;27;45477;-67
2022/07/31 01:30:55;;;;;;;;;0.00;0.00;;;;;26.09;43.55;101514.44;4993158;27;45403;-68
2022/07/31 01:33:24;;;;;;;;;0.25;0.25;;;;;26.08;43.78;101517.19;4992989;27;45467;-68
2022/07/31 01:35:57;;;;;;;;;1.00;1.00;;;;;26.00;44.29;101501.47;5020234;27;45517;-69
2022/07/31 01:38:34;;;;;;;;;0.00;0.00;;;;;25.97;44.20;101504.31;5008581;27;45452;-69
2022/07/31 01:41:03;;;;;;;;;1.25;1.00;;;;;26.02;44.17;101519.25;4985366;27;45754;-68
2022/07/31 01:43:32;;;;;;;;;0.00;0.00;;;;;26.01;44.05;101527.38;4993230;27;45657;-69
2022/07/31 01:46:01;;;;;;;;;0.25;0.25;;;;;25.99;43.95;101507.81;4983512;27;45311;-69
2022/07/31 01:48:30;;;;;;;;;1.00;1.00;;;;;25.93;44.21;101513.47;4988690;27;45605;-68
2022/07/31 01:50:59;;;;;;;;;0.25;0.25;;;;;25.97;44.19;101523.13;4993981;27;45507;-69
2022/07/31 01:53:26;;;;;;;;;1.00;1.00;;;;;25.86;44.10;101504.84;4990420;27;46370;-67
2022/07/31 01:55:54;;;;;;;;;1.25;1.25;;;;;25.92;43.95;101509.06;4983579;27;45739;-69
2022/07/31 01:58:22;;;;;;;;;2.75;2.75;;;;;25.94;44.30;101525.97;4993020;27;45633;-70
2022/07/31 02:00:51;;;;;;;;;1.00;1.00;;;;;25.85;44.40;101512.97;4992517;27;45801;-68
2022/07/31 02:03:18;;;;;;;;;1.00;1.00;;;;;25.86;44.51;101514.69;4992336;27;46357;-68
2022/07/31 02:05:44;;;;;;;;;1.00;1.00;;;;;25.86;44.38;101520.06;4992362;27;45595;-69
2022/07/31 02:08:11;;;;;;;;;1.00;1.00;;;;;25.74;44.63;101495.56;4991659;27;45505;-68
2022/07/31 02:10:38;;;;;;;;;1.33;1.33;;;;;25.79;44.77;101508.75;4980029;27;45258;-69
2022/07/31 02:13:05;;;;;;;;;1.25;1.00;;;;;25.84;44.79;101513.88;4992098;27;46031;-68
2022/07/31 02:15:31;;;;;;;;;1.00;1.00;;;;;25.71;44.65;101502.91;4974762;28;45436;-69
2022/07/31 02:17:59;;;;;;;;;2.00;0.75;;;;;25.80;44.71;101510.50;4983477;27;45728;-69
2022/07/31 02:20:26;;;;;;;;;1.00;1.00;;;;;25.80;44.96;101519.41;4987942;27;45762;-69
2022/07/31 02:22:53;;;;;;;;;1.00;1.00;;;;;25.66;44.65;101497.78;4992660;27;46850;-68
2022/07/31 02:25:21;;;;;;;;;1.25;1.00;;;;;25.78;44.79;101521.31;4992665;27;45584;-69
2022/07/31 02:27:49;;;;;;;;;1.00;1.00;;;;;25.76;45.20;101517.81;4995769;27;45394;-68
2022/07/31 02:30:15;;;;;;;;;1.25;1.25;;;;;25.65;45.02;101504.09;4989580;27;45551;-68
2022/07/31 02:32:45;;;;;;;;;1.00;1.00;;;;;25.74;44.79;101525.06;4981381;27;45492;-69
2022/07/31 02:35:14;;;;;;;;;1.00;1.00;;;;;25.71;45.15;101522.56;4991813;27;46025;-68
2022/07/31 02:37:41;;;;;;;;;0.25;0.25;;;;;25.63;45.36;101513.13;4991975;27;45420;-69
2022/07/31 02:40:10;;;;;;;;;0.25;0.25;;;;;25.45;45.45;101480.03;4992169;27;45720;-69
2022/07/31 02:42:37;;;;;;;;;2.00;1.00;;;;;25.61;45.59;101513.22;4990359;28;45840;-70
2022/07/31 02:45:03;;;;;;;;;0.25;0.25;;;;;25.64;45.44;101514.88;4991745;27;45532;-68
2022/07/31 02:47:30;;;;;;;;;1.00;0.50;;;;;25.63;45.47;101522.06;4992130;27;45957;-69
2022/07/31 02:49:56;;;;;;;;;0.75;0.75;;;;;25.54;45.70;101501.91;4992271;27;45582;-68
2022/07/31 02:52:22;;;;;;;;;2.00;1.00;;;;;25.57;45.75;101503.56;4991125;27;46334;-70
2022/07/31 02:54:49;;;;;;;;;0.00;0.00;;;;;25.53;46.36;101505.56;4991507;27;45452;-68
2022/07/31 02:57:18;;;;;;;;;0.00;0.00;;;;;25.32;46.11;101475.28;4991647;27;45293;-68
2022/07/31 02:59:43;;;;;;;;;0.00;0.00;;;;;25.45;46.73;101505.03;4990810;27;45866;-68
2022/07/31 03:02:09;;;;;;;;;2.00;0.00;;;;;25.36;46.46;101490.25;4991880;27;45398;-67
2022/07/31 03:04:35;;;;;;;;;1.00;1.00;;;;;25.43;46.69;101514.97;4992067;27;45418;-70
2022/07/31 03:07:01;;;;;;;;;0.00;0.00;;;;;25.40;46.51;101509.75;4992017;27;45745;-69
2022/07/31 03:09:27;;;;;;;;;0.00;0.00;;;;;25.37;46.80;101513.47;4981675;27;45583;-69
2022/07/31 03:11:53;;;;;;;;;0.00;0.00;;;;;25.30;47.21;101492.38;4992288;27;46086;-69
2022/07/31 03:14:21;;;;;;;;;2.25;0.25;;;;;25.19;47.56;101479.47;4992071;27;45532;-69
2022/07/31 03:16:48;;;;;;;;;0.50;0.50;;;;;25.30;47.06;101501.28;4991737;27;45754;-68
2022/07/31 03:19:15;;;;;;;;;0.25;0.25;;;;;25.23;47.07;101490.94;4991610;27;45387;-69
2022/07/31 03:21:41;;;;;;;;;1.00;0.50;;;;;25.12;47.50;101475.31;4991476;27;45406;-68
2022/07/31 03:24:07;;;;;;;;;0.25;0.25;;;;;25.23;47.74;101501.66;4991397;27;45396;-69
2022/07/31 03:26:32;;;;;;;;;1.00;1.00;;;;;25.11;47.80;101479.81;4992246;27;45324;-69
2022/07/31 03:29:01;;;;;;;;;1.00;1.00;;;;;25.18;47.34;101496.50;4999337;27;45334;-69
2022/07/31 03:31:27;;;;;;;;;1.50;1.00;;;;;25.17;47.89;101495.63;4999601;27;45590;-69
2022/07/31 03:33:52;;;;;;;;;3.00;1.75;;;;;25.08;47.92;101482.66;4999004;27;45413;-70
2022/07/31 03:36:18;;;;;;;;;2.25;2.00;;;;;25.08;47.68;101482.66;4996420;27;45451;-68
2022/07/31 03:38:43;;;;;;;;;2.67;2.67;;;;;25.05;48.23;101484.59;4995722;27;45461;-69
2022/07/31 03:41:10;;;;;;;;;5.00;3.00;;;;;25.03;48.02;101484.66;4998733;27;45560;-69
2022/07/31 03:43:37;;;;;;;;;2.75;2.75;;;;;25.02;47.88;101487.41;4992467;27;45740;-68
2022/07/31 03:46:04;;;;;;;;;3.00;3.00;;;;;24.88;49.20;101480.00;4974376;28;45714;-69
2022/07/31 03:48:31;;;;;;;;;4.33;3.33;;;;;24.74;48.58;101465.44;4991976;27;45302;-69
2022/07/31 03:50:58;;;;;;;;;3.00;3.00;;;;;24.75;49.07;101463.66;4992001;27;45386;-68
2022/07/31 03:53:24;;;;;;;;;4.00;4.00;;;;;24.74;48.76;101461.88;4974303;28;45388;-69
2022/07/31 03:55:52;;;;;;;;;4.33;4.33;;;;;24.79;48.42;101478.63;4991744;27;45780;-69
2022/07/31 03:58:19;;;;;;;;;5.33;5.00;;;;;24.68;48.38;101456.84;4992324;28;45294;-69
2022/07/31 04:00:44;;;;;;;;;4.00;4.00;;;;;24.78;48.92;101479.56;4991816;27;46662;-69
2022/07/31 04:03:12;;;;;;;;;4.00;4.00;;;;;24.76;48.41;101492.16;4991481;27;45837;-69
2022/07/31 04:05:38;;;;;;;;;5.00;3.33;;;;;24.81;48.95;101492.81;4992711;27;45376;-67
2022/07/31 04:08:05;;;;;;;;;6.00;5.67;;;;;24.79;48.75;101483.97;4971956;28;45659;-69
2022/07/31 04:10:35;;;;;;;;;6.00;6.00;;;;;24.71;48.42;101467.41;4979316;27;46124;-69
2022/07/31 04:13:02;;;;;;;;;6.33;6.33;;;;;24.76;48.78;101484.13;4994988;27;45594;-67
2022/07/31 04:15:29;;;;;;;;;7.00;7.00;;;;;24.51;49.42;101470.97;4994520;27;45507;-69
2022/07/31 04:17:54;;;;;;;;;8.00;8.00;;;;;24.54;49.15;101474.38;4992216;27;45850;-68
2022/07/31 04:20:20;;;;;;;;;10.67;7.00;;;;;24.54;48.78;101470.84;4990644;27;45491;-68
2022/07/31 04:22:47;;;;;;;;;10.00;10.00;;;;;24.57;48.67;101476.06;4990891;27;45339;-69
2022/07/31 04:25:13;;;;;;;;;8.33;8.33;;;;;24.51;48.99;101465.59;4991510;27;45430;-69
2022/07/31 04:27:38;;;;;;;;;8.00;8.00;;;;;24.54;48.87;101481.56;4993801;28;45408;-69
2022/07/31 04:30:07;;;;;;;;;12.00;9.00;;;;;24.34;49.52;101480.59;4990877;27;46100;-69
2022/07/31 04:32:33;;;;;;;;;8.33;8.00;;;;;24.11;50.00;101483.41;4993660;27;45417;-69
2022/07/31 04:34:59;;;;;;;;;9.00;9.00;;;;;24.15;50.03;101486.81;4994915;27;45402;-68
2022/07/31 04:37:24;;;;;;;;;8.33;8.33;;;;;24.17;49.98;101476.91;4996862;27;45448;-69
2022/07/31 04:39:50;;;;;;;;;6.67;6.33;;;;;24.30;49.36;101489.69;4993322;27;45868;-68
2022/07/31 04:42:15;;;;;;;;;5.67;5.67;;;;;24.25;49.45;101472.97;4993275;27;45827;-69
2022/07/31 04:44:41;;;;;;;;;7.67;7.67;;;;;24.42;49.23;101476.72;4993529;27;45368;-68
2022/07/31 04:47:07;;;;;;;;;8.00;6.33;;;;;24.49;49.61;101494.28;4972579;28;45892;-68
2022/07/31 04:49:33;;;;;;;;;6.67;6.67;;;;;24.43;49.00;101478.44;4974894;28;46343;-68
2022/07/31 04:51:59;;;;;;;;;8.33;8.00;;;;;24.51;49.09;101493.28;4997618;27;45247;-68
2022/07/31 04:54:26;;;;;;;;;6.33;5.67;;;;;24.51;49.26;101481.66;4975527;28;45425;-68
2022/07/31 04:56:52;;;;;;;;;5.33;4.67;;;;;24.54;49.58;101479.72;4978663;28;45700;-68
2022/07/31 04:59:19;;;;;;;;;4.00;4.00;;;;;24.49;48.87;101473.72;4989250;27;46146;-70
2022/07/31 05:01:46;;;;;;;;;5.33;4.33;;;;;24.54;49.09;101482.41;4976664;27;45449;-69
2022/07/31 05:04:12;;;;;;;;;4.67;4.67;;;;;24.61;49.15;101492.88;4972054;28;45476;-69
2022/07/31 05:06:43;;;;;;;;;4.00;2.67;;;;;24.63;49.03;101496.31;4984708;27;45314;-68
2022/07/31 05:09:12;;;;;;;;;4.00;4.00;;;;;24.68;49.07;101497.00;4975249;27;45562;-66
2022/07/31 05:11:39;;;;;;;;;5.00;4.00;;;;;24.70;48.70;101498.69;4988471;27;45356;-68
2022/07/31 05:14:07;;;;;;;;;3.67;3.67;;;;;24.73;48.47;101495.84;4993121;27;45774;-69
2022/07/31 05:16:36;;;;;;;;;4.00;4.00;;;;;24.72;48.69;101494.09;4979873;27;45859;-69
2022/07/31 05:19:02;;;;;;;;;5.33;5.33;;;;;24.66;49.03;101480.13;4961486;28;46781;-69
2022/07/31 05:21:29;;;;;;;;;3.67;3.67;;;;;24.74;48.47;101494.03;4993620;27;45504;-69
2022/07/31 05:23:56;;;;;;;;;5.00;5.00;;;;;24.69;48.92;101483.53;4997427;27;45265;-69
2022/07/31 05:26:22;;;;;;;;;4.00;4.00;;;;;24.64;48.48;101471.28;4994658;27;45470;-68
2022/07/31 05:28:53;;;;;;;;;5.33;5.00;;;;;24.70;48.76;101487.97;4992399;27;45473;-69
2022/07/31 05:31:19;;;;;;;;;3.00;3.00;;;;;24.73;48.48;101493.16;4983993;27;45344;-68
2022/07/31 05:33:46;;;;;;;;;5.00;5.00;;;;;24.74;48.96;101494.91;4977030;27;45469;-68
2022/07/31 05:36:13;;;;;;;;;4.00;4.00;;;;;24.74;49.05;101494.03;4975714;27;45482;-68
2022/07/31 05:38:39;;;;;;;;;4.00;4.00;;;;;24.71;48.32;101483.47;4973169;27;45493;-68
2022/07/31 05:41:05;;;;;;;;;4.00;3.00;;;;;24.75;48.84;101477.91;4972832;27;45334;-69
2022/07/31 05:43:31;;;;;;;;;3.00;3.00;;;;;24.80;48.59;101471.47;4973499;27;45554;-69
2022/07/31 05:45:57;;;;;;;;;3.67;3.00;;;;;24.86;48.34;101468.50;4973337;27;45750;-69
2022/07/31 05:48:22;;;;;;;;;3.33;3.33;;;;;24.97;48.52;101485.81;4972344;28;45740;-68
2022/07/31 05:50:49;;;;;;;;;4.33;4.33;;;;;25.03;48.24;101495.38;4974582;27;45515;-68
2022/07/31 05:53:16;;;;;;;;;3.33;3.33;;;;;25.11;47.92;101493.22;4958528;28;45480;-69
2022/07/31 05:55:46;;;;;;;;;4.00;4.00;;;;;25.13;48.10;101496.69;4977097;27;45743;-68
2022/07/31 05:58:12;;;;;;;;;2.00;2.00;;;;;25.15;48.24;101500.19;4990767;27;46161;-69
2022/07/31 06:00:38;;;;;;;;;3.00;3.00;;;;;25.14;48.35;101498.41;5041229;27;45511;-69
2022/07/31 06:03:04;;;;;;;;;4.00;2.00;;;;;25.09;48.02;101489.72;5039014;27;45507;-68
2022/07/31 06:05:31;;;;;;;;;3.00;3.00;;;;;25.12;47.89;101500.31;5012613;27;45724;-69
2022/07/31 06:07:58;;;;;;;;;3.00;3.00;;;;;25.15;48.04;101512.69;4992692;27;45982;-68
2022/07/31 06:10:25;;;;;;;;;2.00;2.00;;;;;25.13;47.83;101501.19;4978532;27;45454;-68
2022/07/31 06:12:50;;;;;;;;;5.00;5.00;;;;;25.12;47.85;101502.97;4995435;27;45494;-68
2022/07/31 06:15:16;;;;;;;;;4.00;4.00;;;;;25.12;47.96;101497.63;4992604;27;45487;-69
2022/07/31 06:17:43;;;;;;;;;4.00;4.00;;;;;25.18;47.77;101504.56;4992477;27;46824;-68
2022/07/31 06:20:09;;;;;;;;;4.00;4.00;;;;;25.26;47.30;101486.28;4971998;27;45729;-69
2022/07/31 06:22:38;;;;;;;;;4.67;4.33;;;;;25.35;47.23;101484.97;4992228;27;45441;-69
2022/07/31 06:25:05;;;;;;;;;3.33;3.33;;;;;25.47;47.04;101491.56;4974334;28;45612;-68
2022/07/31 06:27:31;;;;;;;;;3.67;3.67;;;;;25.54;46.53;101507.28;4991456;27;45519;-68
2022/07/31 06:29:57;;;;;;;;;3.67;3.67;;;;;25.57;46.55;101501.75;4978711;28;45453;-68
2022/07/31 06:32:23;;;;;;;;;4.00;4.00;;;;;25.80;46.40;101506.00;4991546;27;45272;-67
2022/07/31 06:34:49;;;;;;;;;3.25;3.25;;;;;25.94;45.88;101502.66;4982840;27;45575;-67
2022/07/31 06:37:15;;;;;;;;;3.67;3.00;;;;;25.75;45.59;101466.94;4971970;27;45475;-68
2022/07/31 06:39:40;;;;;;;;;4.33;3.33;;;;;25.96;45.41;101494.50;4972330;27;45989;-69
2022/07/31 06:42:06;;;;;;;;;3.00;3.00;;;;;25.93;45.67;101503.59;4975218;27;45841;-67
2022/07/31 06:44:32;;;;;;;;;3.00;3.00;;;;;25.97;45.85;101515.06;4976743;27;45525;-67
2022/07/31 06:46:58;;;;;;;;;3.00;3.00;;;;;25.97;45.40;101512.38;4976223;27;45445;-68
2022/07/31 06:49:24;;;;;;;;;2.67;2.67;;;;;26.33;45.10;101511.44;4972628;27;45297;-68
2022/07/31 06:51:50;;;;;;;;;2.00;2.00;;;;;26.48;44.88;101505.28;4972143;27;45446;-68
2022/07/31 06:54:16;;;;;;;;;3.00;3.00;;;;;26.44;44.31;101492.97;4975084;27;45481;-68
2022/07/31 06:56:42;;;;;;;;;4.00;4.00;;;;;26.48;44.56;101494.53;4975858;28;45650;-67
2022/07/31 06:59:08;;;;;;;;;3.00;3.00;;;;;26.57;44.49;101501.25;4971303;27;45472;-68
2022/07/31 07:01:34;;;;;;;;;2.50;2.00;;;;;26.68;44.10;101498.88;4971649;27;45505;-68
2022/07/31 07:03:59;;;;;;;;;4.50;2.00;;;;;26.68;44.52;101496.19;4979221;27;45371;-68
2022/07/31 07:06:25;;;;;;;;;3.50;3.00;;;;;26.63;44.03;101503.63;4973807;27;45530;-67
2022/07/31 07:08:51;;;;;;;;;4.50;4.50;;;;;26.57;44.57;101498.56;4971664;27;45611;-68
2022/07/31 07:11:18;;;;;;;;;4.25;4.25;;;;;26.60;44.48;101514.53;4984130;27;45344;-68
2022/07/31 07:13:44;;;;;;;;;3.50;3.50;;;;;26.62;44.23;101508.16;4989427;27;45410;-70
2022/07/31 07:16:10;;;;;;;;;4.00;4.00;;;;;26.74;43.76;101506.63;4978713;27;45572;-68
2022/07/31 07:18:35;;;;;;;;;5.33;4.00;;;;;26.77;43.64;101509.13;4971271;28;45728;-68
2022/07/31 07:21:01;;;;;;;;;5.00;3.00;;;;;26.74;43.38;101516.47;4963161;28;45850;-68
2022/07/31 07:23:27;;;;;;;;;3.75;3.75;;;;;26.68;43.43;101503.38;4984343;27;45352;-68
2022/07/31 07:25:53;;;;;;;;;6.00;6.00;;;;;26.84;43.03;101515.06;4971675;27;45801;-69
2022/07/31 07:28:18;;;;;;;;;6.00;5.67;;;;;26.88;43.06;101505.00;4982839;27;45457;-68
2022/07/31 07:30:44;;;;;;;;;5.50;5.50;;;;;26.97;43.16;101516.09;4979579;27;45488;-68
2022/07/31 07:33:10;;;;;;;;;3.75;3.75;;;;;27.06;42.77;101518.28;4982579;27;45565;-69
2022/07/31 07:35:36;;;;;;;;;4.00;4.00;;;;;27.07;42.68;101520.03;4979201;27;46038;-68
2022/07/31 07:38:02;;;;;;;;;7.33;5.00;;;;;27.02;42.75;101519.41;4977855;27;45538;-68
2022/07/31 07:40:28;;;;;;;;;7.00;6.67;;;;;26.93;42.75;101503.78;4990434;27;45500;-69
2022/07/31 07:42:54;;;;;;;;;6.00;5.00;;;;;26.98;43.12;101522.34;4981331;27;45522;-68
2022/07/31 07:45:21;;;;;;;;;8.67;5.33;;;;;27.00;42.81;101536.56;4986736;27;46054;-67
2022/07/31 07:47:48;;;;;;;;;4.00;4.00;;;;;26.97;42.45;101529.53;4971362;28;45564;-69
2022/07/31 07:50:15;;;;;;;;;6.00;3.00;;;;;26.88;42.28;101519.28;4980767;27;45607;-67
2022/07/31 07:52:43;;;;;;;;;4.00;4.00;;;;;27.05;42.15;101527.31;4972007;28;45374;-68
2022/07/31 07:55:11;;;;;;;;;4.50;4.00;;;;;27.09;42.18;101528.00;4972438;27;46193;-68
2022/07/31 07:57:37;;;;;;;;;4.00;4.00;;;;;27.06;41.90;101531.72;5011206;28;45485;-68
2022/07/31 08:00:10;;;;;;;;;5.25;4.00;;;;;27.07;41.99;101520.03;4971867;28;45507;-68
2022/07/31 08:02:35;;;;;;;;;6.67;6.67;;;;;27.04;41.73;101519.31;4963822;28;45592;-68
2022/07/31 08:05:01;;;;;;;;;5.00;4.25;;;;;27.07;42.01;101527.22;4971339;28;45840;-68
2022/07/31 08:07:29;;;;;;;;;5.25;4.00;;;;;27.12;42.09;101521.59;4971755;28;45520;-68
2022/07/31 08:09:56;;;;;;;;;5.75;5.75;;;;;27.19;41.99;101517.59;4973339;27;45596;-68
2022/07/31 08:12:22;;;;;;;;;5.50;5.50;;;;;27.34;41.50;101534.78;4972167;28;45313;-68
2022/07/31 08:14:48;;;;;;;;;5.00;5.00;;;;;27.44;41.19;101525.22;4992681;27;45591;-68
2022/07/31 08:17:14;;;;;;;;;5.00;5.00;;;;;27.40;40.88;101516.44;4981247;27;45474;-68
2022/07/31 08:19:40;;;;;;;;;4.25;4.25;;;;;27.53;41.14;101521.16;4994625;28;45519;-69
2022/07/31 08:22:08;;;;;;;;;4.50;4.25;;;;;27.63;41.02;101530.44;4976532;27;45705;-68
2022/07/31 08:24:34;;;;;;;;;6.50;4.75;;;;;27.69;40.87;101530.94;4973586;27;46605;-69
2022/07/31 08:29:46;;;;;;;;;5.25;5.25;;;;;27.62;40.49;101524.19;4974960;27;45352;-69
2022/07/31 08:32:12;;;;;;;;;5.50;5.50;;;;;27.49;41.11;101529.38;4986827;28;45523;-69
2022/07/31 08:34:38;;;;;;;;;5.75;5.75;;;;;27.29;41.47;101510.81;5037721;27;46318;-69
2022/07/31 08:37:05;;;;;;;;;5.25;5.25;;;;;27.35;41.30;101521.22;4990708;27;45667;-69
2022/07/31 08:39:35;;;;;;;;;6.00;6.00;;;;;27.32;41.45;101513.31;4990338;27;45398;-69
2022/07/31 08:42:05;;;;;;;;;8.00;7.75;;;;;27.59;40.72;101526.16;4992881;27;45290;-67
2022/07/31 08:44:31;;;;;;;;;5.25;5.25;;;;;27.66;41.01;101514.09;4978127;27;46675;-69
2022/07/31 08:46:57;;;;;;;;;5.75;5.75;;;;;27.71;40.45;101506.63;4990795;27;45390;-68
2022/07/31 08:49:29;;;;;;;;;5.50;5.50;;;;;27.78;40.72;101508.00;4994061;27;45367;-69
2022/07/31 08:51:58;;;;;;;;;6.00;6.00;;;;;27.73;40.72;101507.41;4990577;27;45331;-68
2022/07/31 08:54:26;;;;;;;;;5.25;5.00;;;;;27.82;40.90;101517.63;4991782;27;45655;-68
2022/07/31 08:56:52;;;;;;;;;7.00;6.00;;;;;28.04;40.16;101516.41;4992099;27;45547;-68
2022/07/31 08:59:18;;;;;;;;;5.25;5.25;;;;;27.92;40.06;101497.31;4990224;27;45328;-68
2022/07/31 09:01:44;;;;;;;;;9.00;7.25;;;;;27.90;40.47;101517.22;4990026;27;45350;-68
2022/07/31 09:04:10;;;;;;;;;6.00;5.25;;;;;27.77;40.41;101514.34;4990683;27;46327;-69
2022/07/31 09:06:37;;;;;;;;;6.00;6.00;;;;;27.83;40.55;101514.00;4986752;27;45394;-69
2022/07/31 09:09:04;;;;;;;;;5.25;5.25;;;;;27.86;40.51;101513.00;4974797;27;46058;-69
2022/07/31 09:11:30;;;;;;;;;5.50;5.50;;;;;27.88;40.55;101517.31;4984295;28;45482;-69
2022/07/31 09:13:57;;;;;;;;;5.75;5.75;;;;;27.81;40.45;101515.03;4989882;27;46235;-69
2022/07/31 09:16:23;;;;;;;;;9.00;6.00;;;;;27.90;40.36;101518.09;4990109;27;45493;-69
2022/07/31 09:19:02;;;;;;;;;11.25;7.25;;;;;27.88;39.99;101516.44;4989795;27;45556;-69
2022/07/31 09:21:44;;;;;;;;;6.50;6.50;;;;;27.87;40.37;101514.72;4990661;28;46129;-69
2022/07/31 09:24:23;;;;;;;;;6.75;5.75;;;;;27.75;40.45;101493.88;4991810;27;46462;-69
2022/07/31 09:27:00;;;;;;;;;6.00;5.00;;;;;27.84;40.30;101510.38;4992474;27;45646;-70
2022/07/31 09:29:38;;;;;;;;;5.75;5.00;;;;;27.91;40.35;101505.50;4993914;27;45661;-70
2022/07/31 09:32:17;;;;;;;;;6.00;6.00;;;;;27.94;40.15;101512.53;4992034;27;45358;-70
2022/07/31 09:34:44;;;;;;;;;5.00;4.00;;;;;28.00;39.96;101515.75;4973251;28;45902;-69
2022/07/31 09:37:15;;;;;;;;;7.75;7.00;;;;;27.99;39.98;101496.97;4976671;27;45866;-69
2022/07/31 09:39:47;;;;;;;;;7.00;7.00;;;;;28.02;40.25;101507.56;4969835;28;45382;-68
2022/07/31 09:42:13;;;;;;;;;8.25;7.75;;;;;28.05;40.03;101518.16;4974830;27;45508;-69
2022/07/31 09:44:43;;;;;;;;;7.25;7.25;;;;;28.00;39.98;101515.75;4975782;27;45595;-69
2022/07/31 09:47:20;;;;;;;;;6.50;6.50;;;;;27.86;39.81;101508.47;4974212;27;45378;-69
2022/07/31 09:50:00;;;;;;;;;7.75;7.00;;;;;27.75;40.71;101521.63;4972752;27;45349;-67
2022/07/31 09:52:29;;;;;;;;;9.75;8.50;;;;;27.69;40.10;101511.22;4971854;27;45610;-67
2022/07/31 09:55:05;;;;;;;;;7.00;7.00;;;;;27.65;40.07;101518.63;4972828;27;46337;-68
2022/07/31 09:57:31;;;;;;;;;12.00;9.00;;;;;27.70;40.58;101521.91;4972572;27;45474;-69
2022/07/31 09:59:57;;;;;;;;;7.25;7.25;;;;;27.66;40.26;101511.41;4972780;27;45902;-69
2022/07/31 10:02:27;;;;;;;;;8.00;8.00;;;;;27.73;40.24;101528.94;4971307;27;45463;-69
2022/07/31 10:04:56;;;;;;;;;8.25;8.25;;;;;27.75;40.46;101529.72;4942128;28;46627;-70
2022/07/31 10:07:26;;;;;;;;;6.50;6.50;;;;;27.82;40.48;101514.09;4973165;28;45351;-69
2022/07/31 10:09:58;;;;;;;;;7.00;7.00;;;;;27.70;40.55;101491.44;4993241;27;45549;-68
2022/07/31 10:12:28;;;;;;;;;7.25;5.75;;;;;27.81;40.51;101513.22;4992433;27;45539;-68
2022/07/31 10:14:58;;;;;;;;;6.25;6.25;;;;;27.90;40.45;101507.34;5019329;27;45338;-68
2022/07/31 10:17:28;;;;;;;;;7.00;7.00;;;;;28.00;40.17;101493.31;4993983;27;45430;-69
2022/07/31 10:20:00;;;;;;;;;7.25;7.25;;;;;28.05;39.87;101502.00;4976926;27;45614;-69
2022/07/31 10:22:30;;;;;;;;;7.50;7.50;;;;;28.07;39.88;101494.66;5028180;27;45320;-67
2022/07/31 10:25:00;;;;;;;;;7.25;7.25;;;;;28.13;40.00;101483.56;5029705;27;45528;-67
2022/07/31 10:27:28;;;;;;;;;10.00;8.25;;;;;28.19;39.96;101493.97;4983885;27;45523;-70
2022/07/31 10:29:54;;;;;;;;;6.75;6.50;;;;;28.28;39.34;101492.53;5050833;27;45923;-69
2022/07/31 10:32:20;;;;;;;;;5.25;5.25;;;;;28.34;40.27;101495.72;4993546;27;45596;-69
2022/07/31 10:34:46;;;;;;;;;8.00;7.50;;;;;28.33;39.72;101466.16;5038651;27;47345;-69
2022/07/31 10:37:29;;;;;;;;;8.00;6.00;;;;;28.49;39.77;101482.31;5070024;27;45508;-69
2022/07/31 10:40:07;;;;;;;;;7.25;7.25;;;;;28.56;39.53;101480.97;5033255;27;45654;-69
2022/07/31 10:43:08;;;;;;;;;7.25;7.25;;;;;28.67;39.73;101480.31;5046174;27;45629;-68
2022/07/31 10:45:48;;;;;;;;;8.25;7.75;;;;;28.81;39.76;101487.50;4986023;28;46795;-69
2022/07/31 10:48:14;;;;;;;;;5.50;5.50;;;;;28.74;40.27;101460.09;4967038;27;45376;-69
2022/07/31 10:50:39;;;;;;;;;7.75;7.75;;;;;28.91;39.29;101485.97;5039159;27;45570;-70
2022/07/31 10:53:12;;;;;;;;;8.25;7.75;;;;;28.97;38.90;101485.56;5047128;27;45816;-70
2022/07/31 10:55:38;;;;;;;;;8.50;7.25;;;;;28.90;38.20;101485.13;5007395;28;45474;-69
2022/07/31 10:58:12;;;;;;;;;7.50;7.50;;;;;28.96;38.72;101478.47;5063961;27;45529;-71
2022/07/31 11:00:39;;;;;;;;;5.00;5.00;;;;;29.02;39.03;101471.78;4998973;27;45756;-71
2022/07/31 11:03:16;;;;;;;;;10.25;6.75;;;;;29.13;39.23;101483.66;5023952;27;45488;-69
2022/07/31 11:06:02;;;;;;;;;8.25;7.00;;;;;29.24;38.50;101487.50;5053433;27;45550;-69
2022/07/31 11:08:27;;;;;;;;;5.50;5.50;;;;;29.28;38.45;101487.22;4996150;27;45499;-71
2022/07/31 11:10:59;;;;;;;;;8.00;8.00;;;;;29.32;38.38;101474.38;5041880;27;45451;-70
2022/07/31 11:13:25;;;;;;;;;9.50;7.25;;;;;29.36;38.44;101482.19;5039410;28;45593;-71
2022/07/31 11:16:03;;;;;;;;;7.75;7.25;;;;;29.39;37.89;101473.00;5030189;27;46579;-71
2022/07/31 11:18:30;;;;;;;;;6.50;6.50;;;;;29.50;38.44;101473.19;5031805;27;45759;-70
2022/07/31 11:21:03;;;;;;;;;9.25;7.00;;;;;29.51;37.94;101474.91;4985875;27;45435;-71
2022/07/31 11:23:30;;;;;;;;;10.25;7.75;;;;;29.52;38.04;101479.34;4993948;27;45408;-71
2022/07/31 11:26:06;;;;;;;;;10.50;8.00;;;;;29.48;37.97;101475.09;4997714;27;45745;-69
2022/07/31 11:28:33;;;;;;;;;5.50;5.50;;;;;29.55;37.59;101471.03;5021091;27;45710;-68
2022/07/31 11:31:05;;;;;;;;;7.00;7.00;;;;;29.67;37.91;101479.31;5027814;27;45367;-69